Entebbe, Uganda
Current Conditions -  °F | °C
As of 9:55 PM on Sunday 23 Nov 2014 (Local Time) from KQUD Reporting Station
Broken Clouds Broken Clouds  
Wind Chill: 69°   Ceiling: 11000
Heat Index: 69°   Visibility: 10mi
Dew Point: 64°   Wind: 1mph
Humidity: 85%   Direction: 270°W
Pressure: 30.22"   Gusts: NA
Location:  0.06°N, 32.46°E
Report Text: KQUD 231855Z AUTO 27001KT 10SM BKN110 21/18 A3022 RMK AO2 SLP198 T02050179 TSNO $
Loading
Personal Weather Stations






























Interactive Weather Map New forecast layout! Learn more

10-Day Weather Forecast

Advertisements
Track Severe Weather on mobile